sensor_id;sensor_type;location;lat;lon;timestamp;P1;durP1;ratioP1;P2;durP2;ratioP2
21780;SDS011;52576;53.614;9.894;2022-12-07T00:00:31;20.65;;;13.75;;
21780;SDS011;52576;53.614;9.894;2022-12-07T00:01:34;23.02;;;13.82;;
21780;SDS011;52576;53.614;9.894;2022-12-07T00:02:39;21.38;;;14.20;;
21780;SDS011;52576;53.614;9.894;2022-12-07T00:03:43;22.02;;;14.30;;
21780;SDS011;52576;53.614;9.894;2022-12-07T00:04:48;21.67;;;14.07;;
21780;SDS011;52576;53.614;9.894;2022-12-07T00:05:51;20.63;;;13.25;;
21780;SDS011;52576;53.614;9.894;2022-12-07T00:06:54;20.00;;;13.45;;
21780;SDS011;52576;53.614;9.894;2022-12-07T00:07:57;23.60;;;14.77;;
21780;SDS011;52576;53.614;9.894;2022-12-07T00:08:59;25.20;;;14.50;;
21780;SDS011;52576;53.614;9.894;2022-12-07T00:10:05;21.08;;;14.70;;
21780;SDS011;52576;53.614;9.894;2022-12-07T00:11:08;23.27;;;14.18;;
21780;SDS011;52576;53.614;9.894;2022-12-07T00:12:13;25.00;;;14.80;;
21780;SDS011;52576;53.614;9.894;2022-12-07T00:13:16;24.05;;;14.23;;
21780;SDS011;52576;53.614;9.894;2022-12-07T00:14:18;23.88;;;14.52;;
21780;SDS011;52576;53.614;9.894;2022-12-07T00:15:22;23.27;;;14.55;;
21780;SDS011;52576;53.614;9.894;2022-12-07T00:16:27;25.58;;;15.00;;
21780;SDS011;52576;53.614;9.894;2022-12-07T00:17:32;24.60;;;14.88;;
21780;SDS011;52576;53.614;9.894;2022-12-07T00:18:35;19.65;;;13.95;;
21780;SDS011;52576;53.614;9.894;2022-12-07T00:19:38;19.35;;;14.02;;
21780;SDS011;52576;53.614;9.894;2022-12-07T00:20:40;22.90;;;13.85;;
21780;SDS011;52576;53.614;9.894;2022-12-07T00:21:44;22.02;;;14.30;;
21780;SDS011;52576;53.614;9.894;2022-12-07T00:22:46;22.75;;;14.20;;
21780;SDS011;52576;53.614;9.894;2022-12-07T00:23:49;24.08;;;14.27;;
21780;SDS011;52576;53.614;9.894;2022-12-07T00:24:53;20.92;;;13.88;;
21780;SDS011;52576;53.614;9.894;2022-12-07T00:26:02;21.30;;;13.65;;
21780;SDS011;52576;53.614;9.894;2022-12-07T00:27:05;22.98;;;14.13;;
21780;SDS011;52576;53.614;9.894;2022-12-07T00:28:08;21.27;;;14.52;;
21780;SDS011;52576;53.614;9.894;2022-12-07T00:29:15;22.73;;;14.30;;
21780;SDS011;52576;53.614;9.894;2022-12-07T00:30:19;17.90;;;12.68;;
21780;SDS011;52576;53.614;9.894;2022-12-07T00:31:23;23.42;;;14.13;;
21780;SDS011;52576;53.614;9.894;2022-12-07T00:32:27;20.80;;;13.57;;
21780;SDS011;52576;53.614;9.894;2022-12-07T00:33:30;21.35;;;13.23;;
21780;SDS011;52576;53.614;9.894;2022-12-07T00:34:33;19.33;;;13.25;;
21780;SDS011;52576;53.614;9.894;2022-12-07T00:35:35;20.00;;;12.77;;
21780;SDS011;52576;53.614;9.894;2022-12-07T00:36:38;21.75;;;13.27;;
21780;SDS011;52576;53.614;9.894;2022-12-07T00:37:40;19.73;;;12.82;;
21780;SDS011;52576;53.614;9.894;2022-12-07T00:38:44;21.58;;;12.43;;
21780;SDS011;52576;53.614;9.894;2022-12-07T00:39:46;18.15;;;12.52;;
21780;SDS011;52576;53.614;9.894;2022-12-07T00:40:53;19.00;;;12.63;;
21780;SDS011;52576;53.614;9.894;2022-12-07T00:41:58;22.00;;;13.55;;
21780;SDS011;52576;53.614;9.894;2022-12-07T00:43:01;20.50;;;12.68;;
21780;SDS011;52576;53.614;9.894;2022-12-07T00:44:04;21.27;;;12.77;;
21780;SDS011;52576;53.614;9.894;2022-12-07T00:45:07;20.35;;;12.07;;
21780;SDS011;52576;53.614;9.894;2022-12-07T00:46:10;20.45;;;12.32;;
21780;SDS011;52576;53.614;9.894;2022-12-07T00:47:15;22.05;;;12.90;;
21780;SDS011;52576;53.614;9.894;2022-12-07T00:48:17;20.02;;;12.77;;
21780;SDS011;52576;53.614;9.894;2022-12-07T00:49:20;16.85;;;11.57;;
21780;SDS011;52576;53.614;9.894;2022-12-07T00:50:23;19.10;;;12.02;;
21780;SDS011;52576;53.614;9.894;2022-12-07T00:51:26;17.38;;;11.23;;
21780;SDS011;52576;53.614;9.894;2022-12-07T00:52:29;16.20;;;10.82;;
21780;SDS011;52576;53.614;9.894;2022-12-07T00:53:33;17.88;;;11.00;;
21780;SDS011;52576;53.614;9.894;2022-12-07T00:55:44;14.98;;;10.23;;
21780;SDS011;52576;53.614;9.894;2022-12-07T00:56:47;17.35;;;11.07;;
21780;SDS011;52576;53.614;9.894;2022-12-07T00:57:51;19.13;;;11.32;;
21780;SDS011;52576;53.614;9.894;2022-12-07T00:58:55;18.52;;;10.45;;
21780;SDS011;52576;53.614;9.894;2022-12-07T00:59:58;16.70;;;10.00;;
21780;SDS011;52576;53.614;9.894;2022-12-07T01:01:03;18.98;;;10.20;;
21780;SDS011;52576;53.614;9.894;2022-12-07T01:02:06;18.27;;;11.00;;
21780;SDS011;52576;53.614;9.894;2022-12-07T01:03:11;17.00;;;10.07;;
21780;SDS011;52576;53.614;9.894;2022-12-07T01:04:14;17.70;;;10.35;;
21780;SDS011;52576;53.614;9.894;2022-12-07T01:05:17;17.55;;;10.23;;
21780;SDS011;52576;53.614;9.894;2022-12-07T01:06:21;22.42;;;10.20;;
21780;SDS011;52576;53.614;9.894;2022-12-07T01:07:25;18.83;;;10.18;;
21780;SDS011;52576;53.614;9.894;2022-12-07T01:08:27;19.55;;;10.02;;
21780;SDS011;52576;53.614;9.894;2022-12-07T01:09:31;18.15;;;10.00;;
21780;SDS011;52576;53.614;9.894;2022-12-07T01:10:34;14.57;;;10.10;;
21780;SDS011;52576;53.614;9.894;2022-12-07T01:11:37;20.00;;;10.70;;
21780;SDS011;52576;53.614;9.894;2022-12-07T01:12:39;15.35;;;9.80;;
21780;SDS011;52576;53.614;9.894;2022-12-07T01:13:44;17.10;;;9.65;;
21780;SDS011;52576;53.614;9.894;2022-12-07T01:14:47;16.10;;;9.70;;
21780;SDS011;52576;53.614;9.894;2022-12-07T01:15:50;15.57;;;9.45;;
21780;SDS011;52576;53.614;9.894;2022-12-07T01:16:53;15.15;;;9.63;;
21780;SDS011;52576;53.614;9.894;2022-12-07T01:17:56;16.25;;;9.30;;
21780;SDS011;52576;53.614;9.894;2022-12-07T01:18:59;16.00;;;9.20;;
21780;SDS011;52576;53.614;9.894;2022-12-07T01:20:03;17.77;;;9.23;;
21780;SDS011;52576;53.614;9.894;2022-12-07T01:21:07;17.77;;;9.90;;
21780;SDS011;52576;53.614;9.894;2022-12-07T01:22:13;16.92;;;9.30;;
21780;SDS011;52576;53.614;9.894;2022-12-07T01:23:15;18.17;;;9.75;;
21780;SDS011;52576;53.614;9.894;2022-12-07T01:24:18;19.25;;;9.73;;
21780;SDS011;52576;53.614;9.894;2022-12-07T01:25:20;16.30;;;9.27;;
21780;SDS011;52576;53.614;9.894;2022-12-07T01:26:24;19.92;;;9.57;;
21780;SDS011;52576;53.614;9.894;2022-12-07T01:27:27;14.88;;;8.73;;
21780;SDS011;52576;53.614;9.894;2022-12-07T01:28:30;15.68;;;9.25;;
21780;SDS011;52576;53.614;9.894;2022-12-07T01:29:33;15.98;;;9.10;;
21780;SDS011;52576;53.614;9.894;2022-12-07T01:30:37;15.05;;;9.40;;
21780;SDS011;52576;53.614;9.894;2022-12-07T01:31:39;15.90;;;9.25;;
21780;SDS011;52576;53.614;9.894;2022-12-07T01:32:42;16.30;;;9.02;;
21780;SDS011;52576;53.614;9.894;2022-12-07T01:33:45;14.65;;;9.38;;
21780;SDS011;52576;53.614;9.894;2022-12-07T01:34:49;15.38;;;9.48;;
21780;SDS011;52576;53.614;9.894;2022-12-07T01:35:52;15.93;;;9.45;;
21780;SDS011;52576;53.614;9.894;2022-12-07T01:36:55;19.60;;;9.50;;
21780;SDS011;52576;53.614;9.894;2022-12-07T01:37:58;16.45;;;10.23;;
21780;SDS011;52576;53.614;9.894;2022-12-07T01:39:02;16.42;;;10.10;;
21780;SDS011;52576;53.614;9.894;2022-12-07T01:40:07;15.95;;;9.63;;
21780;SDS011;52576;53.614;9.894;2022-12-07T01:41:11;17.30;;;9.68;;
21780;SDS011;52576;53.614;9.894;2022-12-07T01:42:15;15.38;;;9.57;;
21780;SDS011;52576;53.614;9.894;2022-12-07T01:43:17;20.17;;;9.68;;
21780;SDS011;52576;53.614;9.894;2022-12-07T01:44:22;17.23;;;9.73;;
21780;SDS011;52576;53.614;9.894;2022-12-07T01:46:48;16.10;;;9.02;;
21780;SDS011;52576;53.614;9.894;2022-12-07T01:47:52;13.57;;;9.15;;
21780;SDS011;52576;53.614;9.894;2022-12-07T01:48:58;16.88;;;9.68;;
21780;SDS011;52576;53.614;9.894;2022-12-07T01:50:00;15.60;;;9.25;;
21780;SDS011;52576;53.614;9.894;2022-12-07T01:51:05;18.27;;;10.10;;
21780;SDS011;52576;53.614;9.894;2022-12-07T01:52:13;16.65;;;9.77;;
21780;SDS011;52576;53.614;9.894;2022-12-07T01:53:19;16.98;;;9.40;;
21780;SDS011;52576;53.614;9.894;2022-12-07T01:54:25;21.90;;;9.93;;
21780;SDS011;52576;53.614;9.894;2022-12-07T01:55:29;17.65;;;9.82;;
21780;SDS011;52576;53.614;9.894;2022-12-07T01:56:31;18.48;;;10.35;;
21780;SDS011;52576;53.614;9.894;2022-12-07T01:57:36;19.08;;;9.73;;
21780;SDS011;52576;53.614;9.894;2022-12-07T01:58:41;19.65;;;9.77;;
21780;SDS011;52576;53.614;9.894;2022-12-07T01:59:45;16.73;;;9.50;;
21780;SDS011;52576;53.614;9.894;2022-12-07T02:00:51;17.17;;;9.20;;
21780;SDS011;52576;53.614;9.894;2022-12-07T02:01:55;16.25;;;9.60;;
21780;SDS011;52576;53.614;9.894;2022-12-07T02:03:00;16.25;;;8.88;;
21780;SDS011;52576;53.614;9.894;2022-12-07T02:04:08;17.63;;;9.60;;
21780;SDS011;52576;53.614;9.894;2022-12-07T02:05:10;15.15;;;9.23;;
21780;SDS011;52576;53.614;9.894;2022-12-07T02:06:15;21.08;;;10.02;;
21780;SDS011;52576;53.614;9.894;2022-12-07T02:07:22;22.80;;;9.32;;
21780;SDS011;52576;53.614;9.894;2022-12-07T02:08:26;20.85;;;9.55;;
21780;SDS011;52576;53.614;9.894;2022-12-07T02:09:29;17.58;;;9.05;;
21780;SDS011;52576;53.614;9.894;2022-12-07T02:10:32;19.02;;;8.43;;
21780;SDS011;52576;53.614;9.894;2022-12-07T02:11:34;19.35;;;9.18;;
21780;SDS011;52576;53.614;9.894;2022-12-07T02:12:38;15.30;;;9.05;;
21780;SDS011;52576;53.614;9.894;2022-12-07T02:13:40;16.15;;;8.55;;
21780;SDS011;52576;53.614;9.894;2022-12-07T02:14:46;17.73;;;9.27;;
21780;SDS011;52576;53.614;9.894;2022-12-07T02:15:55;16.23;;;8.27;;
21780;SDS011;52576;53.614;9.894;2022-12-07T02:17:11;19.52;;;8.93;;
21780;SDS011;52576;53.614;9.894;2022-12-07T02:18:22;16.83;;;7.75;;
21780;SDS011;52576;53.614;9.894;2022-12-07T02:21:12;14.20;;;7.65;;
21780;SDS011;52576;53.614;9.894;2022-12-07T02:25:23;21.52;;;7.32;;
21780;SDS011;52576;53.614;9.894;2022-12-07T02:26:55;13.38;;;7.07;;
21780;SDS011;52576;53.614;9.894;2022-12-07T02:28:17;14.13;;;7.25;;
21780;SDS011;52576;53.614;9.894;2022-12-07T02:29:29;14.70;;;7.28;;
21780;SDS011;52576;53.614;9.894;2022-12-07T02:30:40;14.52;;;7.32;;
21780;SDS011;52576;53.614;9.894;2022-12-07T02:31:53;14.90;;;6.95;;
21780;SDS011;52576;53.614;9.894;2022-12-07T02:33:03;12.27;;;7.10;;
21780;SDS011;52576;53.614;9.894;2022-12-07T02:34:11;16.85;;;7.22;;
21780;SDS011;52576;53.614;9.894;2022-12-07T02:35:21;16.95;;;6.85;;
21780;SDS011;52576;53.614;9.894;2022-12-07T02:36:28;15.18;;;6.70;;
21780;SDS011;52576;53.614;9.894;2022-12-07T02:37:37;11.68;;;5.82;;
21780;SDS011;52576;53.614;9.894;2022-12-07T02:38:45;14.85;;;6.20;;
21780;SDS011;52576;53.614;9.894;2022-12-07T02:39:53;14.20;;;6.45;;
21780;SDS011;52576;53.614;9.894;2022-12-07T02:41:02;14.75;;;6.03;;
21780;SDS011;52576;53.614;9.894;2022-12-07T02:42:09;11.50;;;5.85;;
21780;SDS011;52576;53.614;9.894;2022-12-07T02:43:18;12.95;;;5.75;;
21780;SDS011;52576;53.614;9.894;2022-12-07T02:44:27;10.05;;;5.60;;
21780;SDS011;52576;53.614;9.894;2022-12-07T02:45:33;12.75;;;5.32;;
21780;SDS011;52576;53.614;9.894;2022-12-07T02:46:40;12.35;;;5.63;;
21780;SDS011;52576;53.614;9.894;2022-12-07T02:47:46;8.52;;;4.43;;
21780;SDS011;52576;53.614;9.894;2022-12-07T02:48:53;14.80;;;4.68;;
21780;SDS011;52576;53.614;9.894;2022-12-07T02:49:56;12.52;;;5.07;;
21780;SDS011;52576;53.614;9.894;2022-12-07T02:51:00;17.30;;;4.90;;
21780;SDS011;52576;53.614;9.894;2022-12-07T02:52:03;14.55;;;5.07;;
21780;SDS011;52576;53.614;9.894;2022-12-07T02:54:33;9.68;;;3.97;;
21780;SDS011;52576;53.614;9.894;2022-12-07T02:55:38;10.57;;;4.40;;
21780;SDS011;52576;53.614;9.894;2022-12-07T02:56:45;10.95;;;4.07;;
21780;SDS011;52576;53.614;9.894;2022-12-07T02:58:06;9.55;;;4.00;;
21780;SDS011;52576;53.614;9.894;2022-12-07T02:59:22;9.50;;;3.90;;
21780;SDS011;52576;53.614;9.894;2022-12-07T03:00:38;9.18;;;3.42;;
21780;SDS011;52576;53.614;9.894;2022-12-07T03:01:53;10.55;;;2.92;;
21780;SDS011;52576;53.614;9.894;2022-12-07T03:03:09;10.60;;;3.13;;
21780;SDS011;52576;53.614;9.894;2022-12-07T03:04:17;11.00;;;2.92;;
21780;SDS011;52576;53.614;9.894;2022-12-07T03:05:37;5.90;;;2.85;;
21780;SDS011;52576;53.614;9.894;2022-12-07T03:06:50;7.95;;;2.83;;
21780;SDS011;52576;53.614;9.894;2022-12-07T03:08:00;10.90;;;2.70;;
21780;SDS011;52576;53.614;9.894;2022-12-07T03:09:07;8.40;;;2.72;;
21780;SDS011;52576;53.614;9.894;2022-12-07T03:10:18;6.70;;;2.70;;
21780;SDS011;52576;53.614;9.894;2022-12-07T03:11:28;9.88;;;2.42;;
21780;SDS011;52576;53.614;9.894;2022-12-07T03:12:43;5.07;;;2.15;;
21780;SDS011;52576;53.614;9.894;2022-12-07T03:13:50;6.72;;;2.58;;
21780;SDS011;52576;53.614;9.894;2022-12-07T03:15:04;6.82;;;2.50;;
21780;SDS011;52576;53.614;9.894;2022-12-07T03:16:12;5.53;;;2.10;;
21780;SDS011;52576;53.614;9.894;2022-12-07T03:17:19;8.60;;;2.38;;
21780;SDS011;52576;53.614;9.894;2022-12-07T03:18:28;4.57;;;1.92;;
21780;SDS011;52576;53.614;9.894;2022-12-07T03:19:33;11.15;;;1.92;;
21780;SDS011;52576;53.614;9.894;2022-12-07T03:20:37;9.15;;;2.20;;
21780;SDS011;52576;53.614;9.894;2022-12-07T03:21:45;4.47;;;2.03;;
21780;SDS011;52576;53.614;9.894;2022-12-07T03:22:51;6.95;;;1.70;;
21780;SDS011;52576;53.614;9.894;2022-12-07T03:23:57;9.05;;;2.17;;
21780;SDS011;52576;53.614;9.894;2022-12-07T03:25:03;6.07;;;1.73;;
21780;SDS011;52576;53.614;9.894;2022-12-07T03:26:09;3.55;;;1.60;;
21780;SDS011;52576;53.614;9.894;2022-12-07T03:27:16;6.57;;;1.63;;
21780;SDS011;52576;53.614;9.894;2022-12-07T03:28:24;7.80;;;1.60;;
21780;SDS011;52576;53.614;9.894;2022-12-07T03:29:34;7.35;;;2.47;;
21780;SDS011;52576;53.614;9.894;2022-12-07T03:30:42;3.35;;;1.45;;
21780;SDS011;52576;53.614;9.894;2022-12-07T03:31:50;8.65;;;1.70;;
21780;SDS011;52576;53.614;9.894;2022-12-07T03:32:58;8.20;;;1.95;;
21780;SDS011;52576;53.614;9.894;2022-12-07T03:34:06;6.65;;;1.58;;
21780;SDS011;52576;53.614;9.894;2022-12-07T03:35:14;7.47;;;1.80;;
21780;SDS011;52576;53.614;9.894;2022-12-07T03:36:23;4.45;;;1.25;;
21780;SDS011;52576;53.614;9.894;2022-12-07T03:37:32;3.72;;;1.45;;
21780;SDS011;52576;53.614;9.894;2022-12-07T03:38:39;4.10;;;1.50;;
21780;SDS011;52576;53.614;9.894;2022-12-07T03:39:46;7.95;;;1.50;;
21780;SDS011;52576;53.614;9.894;2022-12-07T03:41:01;6.22;;;1.77;;
21780;SDS011;52576;53.614;9.894;2022-12-07T03:42:09;8.63;;;1.40;;
21780;SDS011;52576;53.614;9.894;2022-12-07T03:43:13;6.80;;;1.58;;
21780;SDS011;52576;53.614;9.894;2022-12-07T03:44:16;7.07;;;1.95;;
21780;SDS011;52576;53.614;9.894;2022-12-07T03:45:20;8.48;;;1.70;;
21780;SDS011;52576;53.614;9.894;2022-12-07T03:46:32;4.80;;;1.80;;
21780;SDS011;52576;53.614;9.894;2022-12-07T03:47:45;5.13;;;1.65;;
21780;SDS011;52576;53.614;9.894;2022-12-07T03:48:56;4.72;;;1.50;;
21780;SDS011;52576;53.614;9.894;2022-12-07T03:50:09;6.95;;;1.67;;
21780;SDS011;52576;53.614;9.894;2022-12-07T03:51:18;3.55;;;1.23;;
21780;SDS011;52576;53.614;9.894;2022-12-07T03:52:28;4.68;;;1.50;;
21780;SDS011;52576;53.614;9.894;2022-12-07T03:53:36;5.40;;;1.40;;
21780;SDS011;52576;53.614;9.894;2022-12-07T03:54:45;6.20;;;1.70;;
21780;SDS011;52576;53.614;9.894;2022-12-07T03:55:53;13.27;;;1.95;;
21780;SDS011;52576;53.614;9.894;2022-12-07T03:56:58;7.75;;;1.55;;
21780;SDS011;52576;53.614;9.894;2022-12-07T03:58:03;5.85;;;1.48;;
21780;SDS011;52576;53.614;9.894;2022-12-07T03:59:09;4.18;;;1.80;;
21780;SDS011;52576;53.614;9.894;2022-12-07T04:00:13;5.25;;;1.90;;
21780;SDS011;52576;53.614;9.894;2022-12-07T04:01:17;5.60;;;1.90;;
21780;SDS011;52576;53.614;9.894;2022-12-07T04:02:20;6.13;;;1.85;;
21780;SDS011;52576;53.614;9.894;2022-12-07T04:03:24;4.32;;;2.05;;
21780;SDS011;52576;53.614;9.894;2022-12-07T04:04:27;5.03;;;1.77;;
21780;SDS011;52576;53.614;9.894;2022-12-07T04:05:30;3.83;;;1.73;;
21780;SDS011;52576;53.614;9.894;2022-12-07T04:06:33;3.88;;;1.80;;
21780;SDS011;52576;53.614;9.894;2022-12-07T04:07:36;7.65;;;2.38;;
21780;SDS011;52576;53.614;9.894;2022-12-07T04:08:38;4.78;;;1.95;;
21780;SDS011;52576;53.614;9.894;2022-12-07T04:09:41;9.73;;;2.50;;
21780;SDS011;52576;53.614;9.894;2022-12-07T04:10:44;7.65;;;2.22;;
21780;SDS011;52576;53.614;9.894;2022-12-07T04:11:47;6.40;;;1.95;;
21780;SDS011;52576;53.614;9.894;2022-12-07T04:12:49;9.45;;;1.90;;
21780;SDS011;52576;53.614;9.894;2022-12-07T04:13:52;8.60;;;2.75;;
21780;SDS011;52576;53.614;9.894;2022-12-07T04:15:09;7.35;;;1.95;;
21780;SDS011;52576;53.614;9.894;2022-12-07T04:16:12;4.55;;;2.20;;
21780;SDS011;52576;53.614;9.894;2022-12-07T04:17:15;8.98;;;2.00;;
21780;SDS011;52576;53.614;9.894;2022-12-07T04:18:18;10.05;;;2.20;;
21780;SDS011;52576;53.614;9.894;2022-12-07T04:19:22;9.02;;;2.10;;
21780;SDS011;52576;53.614;9.894;2022-12-07T04:20:27;5.78;;;1.92;;
21780;SDS011;52576;53.614;9.894;2022-12-07T04:21:30;5.72;;;2.42;;
21780;SDS011;52576;53.614;9.894;2022-12-07T04:22:33;5.70;;;2.17;;
21780;SDS011;52576;53.614;9.894;2022-12-07T04:23:35;5.78;;;2.40;;
21780;SDS011;52576;53.614;9.894;2022-12-07T04:24:38;6.32;;;2.50;;
21780;SDS011;52576;53.614;9.894;2022-12-07T04:25:40;5.90;;;2.30;;
21780;SDS011;52576;53.614;9.894;2022-12-07T04:26:44;6.13;;;2.53;;
21780;SDS011;52576;53.614;9.894;2022-12-07T04:27:46;10.82;;;2.40;;
21780;SDS011;52576;53.614;9.894;2022-12-07T04:28:49;7.53;;;2.53;;
21780;SDS011;52576;53.614;9.894;2022-12-07T04:29:51;6.28;;;2.53;;
21780;SDS011;52576;53.614;9.894;2022-12-07T04:30:54;7.75;;;2.30;;
21780;SDS011;52576;53.614;9.894;2022-12-07T04:31:57;6.57;;;2.78;;
21780;SDS011;52576;53.614;9.894;2022-12-07T04:33:00;5.65;;;2.45;;
21780;SDS011;52576;53.614;9.894;2022-12-07T04:34:03;4.43;;;2.40;;
21780;SDS011;52576;53.614;9.894;2022-12-07T04:35:08;7.88;;;2.58;;
21780;SDS011;52576;53.614;9.894;2022-12-07T04:36:11;6.00;;;2.78;;
21780;SDS011;52576;53.614;9.894;2022-12-07T04:37:14;4.10;;;2.30;;
21780;SDS011;52576;53.614;9.894;2022-12-07T04:38:16;6.13;;;2.13;;
21780;SDS011;52576;53.614;9.894;2022-12-07T04:39:21;6.90;;;2.72;;
21780;SDS011;52576;53.614;9.894;2022-12-07T04:40:25;7.30;;;2.20;;
21780;SDS011;52576;53.614;9.894;2022-12-07T04:41:28;10.80;;;2.85;;
21780;SDS011;52576;53.614;9.894;2022-12-07T04:42:31;5.80;;;2.70;;
21780;SDS011;52576;53.614;9.894;2022-12-07T04:43:34;7.25;;;2.30;;
21780;SDS011;52576;53.614;9.894;2022-12-07T04:44:37;6.65;;;2.42;;
21780;SDS011;52576;53.614;9.894;2022-12-07T04:45:40;6.95;;;2.78;;
21780;SDS011;52576;53.614;9.894;2022-12-07T04:46:48;11.05;;;2.53;;
21780;SDS011;52576;53.614;9.894;2022-12-07T04:47:51;5.43;;;2.25;;
21780;SDS011;52576;53.614;9.894;2022-12-07T04:48:54;6.32;;;2.33;;
21780;SDS011;52576;53.614;9.894;2022-12-07T04:49:57;5.47;;;2.50;;
21780;SDS011;52576;53.614;9.894;2022-12-07T04:51:03;12.13;;;2.80;;
21780;SDS011;52576;53.614;9.894;2022-12-07T04:52:07;5.20;;;2.17;;
21780;SDS011;52576;53.614;9.894;2022-12-07T04:53:09;4.20;;;2.42;;
21780;SDS011;52576;53.614;9.894;2022-12-07T04:54:12;7.50;;;2.33;;
21780;SDS011;52576;53.614;9.894;2022-12-07T04:55:15;5.70;;;2.47;;
21780;SDS011;52576;53.614;9.894;2022-12-07T04:56:18;5.82;;;2.22;;
21780;SDS011;52576;53.614;9.894;2022-12-07T04:57:21;4.72;;;2.60;;
21780;SDS011;52576;53.614;9.894;2022-12-07T04:58:24;10.00;;;2.38;;
21780;SDS011;52576;53.614;9.894;2022-12-07T04:59:26;5.03;;;2.50;;
21780;SDS011;52576;53.614;9.894;2022-12-07T05:00:29;6.75;;;2.65;;
21780;SDS011;52576;53.614;9.894;2022-12-07T05:01:32;7.70;;;2.40;;
21780;SDS011;52576;53.614;9.894;2022-12-07T05:02:35;5.90;;;2.85;;
21780;SDS011;52576;53.614;9.894;2022-12-07T05:03:38;5.40;;;2.78;;
21780;SDS011;52576;53.614;9.894;2022-12-07T05:04:41;5.93;;;2.60;;
21780;SDS011;52576;53.614;9.894;2022-12-07T05:05:43;8.07;;;2.80;;
21780;SDS011;52576;53.614;9.894;2022-12-07T05:06:48;8.43;;;2.50;;
21780;SDS011;52576;53.614;9.894;2022-12-07T05:07:50;6.70;;;2.45;;
21780;SDS011;52576;53.614;9.894;2022-12-07T05:08:53;5.38;;;2.60;;
21780;SDS011;52576;53.614;9.894;2022-12-07T05:09:55;5.47;;;2.55;;
21780;SDS011;52576;53.614;9.894;2022-12-07T05:10:59;5.93;;;2.50;;
21780;SDS011;52576;53.614;9.894;2022-12-07T05:12:01;7.10;;;2.80;;
21780;SDS011;52576;53.614;9.894;2022-12-07T05:13:04;9.18;;;2.83;;
21780;SDS011;52576;53.614;9.894;2022-12-07T05:14:08;8.23;;;2.95;;
21780;SDS011;52576;53.614;9.894;2022-12-07T05:15:14;5.32;;;2.65;;
21780;SDS011;52576;53.614;9.894;2022-12-07T05:16:17;6.78;;;3.15;;
21780;SDS011;52576;53.614;9.894;2022-12-07T05:17:20;7.38;;;2.95;;
21780;SDS011;52576;53.614;9.894;2022-12-07T05:18:23;6.18;;;2.72;;
21780;SDS011;52576;53.614;9.894;2022-12-07T05:19:26;5.53;;;2.90;;
21780;SDS011;52576;53.614;9.894;2022-12-07T05:20:29;4.55;;;2.67;;
21780;SDS011;52576;53.614;9.894;2022-12-07T05:21:31;7.07;;;2.70;;
21780;SDS011;52576;53.614;9.894;2022-12-07T05:22:36;7.72;;;3.10;;
21780;SDS011;52576;53.614;9.894;2022-12-07T05:23:39;10.10;;;3.33;;
21780;SDS011;52576;53.614;9.894;2022-12-07T05:24:41;8.55;;;2.90;;
21780;SDS011;52576;53.614;9.894;2022-12-07T05:25:44;8.32;;;2.97;;
21780;SDS011;52576;53.614;9.894;2022-12-07T05:26:48;8.30;;;2.78;;
21780;SDS011;52576;53.614;9.894;2022-12-07T05:27:51;7.07;;;3.17;;
21780;SDS011;52576;53.614;9.894;2022-12-07T05:28:53;7.30;;;2.83;;
21780;SDS011;52576;53.614;9.894;2022-12-07T05:29:57;6.13;;;2.70;;
21780;SDS011;52576;53.614;9.894;2022-12-07T05:31:00;7.60;;;3.10;;
21780;SDS011;52576;53.614;9.894;2022-12-07T05:32:03;7.63;;;2.92;;
21780;SDS011;52576;53.614;9.894;2022-12-07T05:33:06;8.57;;;3.08;;
21780;SDS011;52576;53.614;9.894;2022-12-07T05:34:10;9.02;;;2.95;;
21780;SDS011;52576;53.614;9.894;2022-12-07T05:35:12;6.53;;;2.70;;
21780;SDS011;52576;53.614;9.894;2022-12-07T05:36:16;7.95;;;3.20;;
21780;SDS011;52576;53.614;9.894;2022-12-07T05:37:18;6.97;;;3.00;;
21780;SDS011;52576;53.614;9.894;2022-12-07T05:38:23;6.82;;;2.80;;
21780;SDS011;52576;53.614;9.894;2022-12-07T05:39:26;10.25;;;3.10;;
21780;SDS011;52576;53.614;9.894;2022-12-07T05:40:29;5.80;;;2.90;;
21780;SDS011;52576;53.614;9.894;2022-12-07T05:41:31;8.10;;;3.03;;
21780;SDS011;52576;53.614;9.894;2022-12-07T05:42:52;8.43;;;3.00;;
21780;SDS011;52576;53.614;9.894;2022-12-07T05:44:00;10.25;;;3.13;;
21780;SDS011;52576;53.614;9.894;2022-12-07T05:45:03;7.93;;;2.90;;
21780;SDS011;52576;53.614;9.894;2022-12-07T05:46:07;7.72;;;2.90;;
21780;SDS011;52576;53.614;9.894;2022-12-07T05:47:09;10.75;;;3.05;;
21780;SDS011;52576;53.614;9.894;2022-12-07T05:48:13;6.68;;;3.42;;
21780;SDS011;52576;53.614;9.894;2022-12-07T05:49:15;5.05;;;2.88;;
21780;SDS011;52576;53.614;9.894;2022-12-07T05:50:19;5.72;;;3.03;;
21780;SDS011;52576;53.614;9.894;2022-12-07T05:51:34;11.02;;;3.20;;
21780;SDS011;52576;53.614;9.894;2022-12-07T05:52:37;5.50;;;2.88;;
21780;SDS011;52576;53.614;9.894;2022-12-07T05:53:42;7.10;;;3.30;;
21780;SDS011;52576;53.614;9.894;2022-12-07T05:54:44;5.50;;;2.72;;
21780;SDS011;52576;53.614;9.894;2022-12-07T05:55:47;6.35;;;3.17;;
21780;SDS011;52576;53.614;9.894;2022-12-07T05:56:49;8.30;;;3.28;;
21780;SDS011;52576;53.614;9.894;2022-12-07T05:57:52;8.30;;;3.17;;
21780;SDS011;52576;53.614;9.894;2022-12-07T05:59:13;7.78;;;3.08;;
21780;SDS011;52576;53.614;9.894;2022-12-07T06:00:24;9.43;;;3.15;;
21780;SDS011;52576;53.614;9.894;2022-12-07T06:01:27;11.20;;;3.10;;
21780;SDS011;52576;53.614;9.894;2022-12-07T06:02:30;7.35;;;3.13;;
21780;SDS011;52576;53.614;9.894;2022-12-07T06:03:33;7.95;;;3.22;;
21780;SDS011;52576;53.614;9.894;2022-12-07T06:04:36;7.60;;;3.20;;
21780;SDS011;52576;53.614;9.894;2022-12-07T06:05:40;8.38;;;3.08;;
21780;SDS011;52576;53.614;9.894;2022-12-07T06:06:43;7.80;;;3.60;;
21780;SDS011;52576;53.614;9.894;2022-12-07T06:07:46;12.63;;;3.60;;
21780;SDS011;52576;53.614;9.894;2022-12-07T06:08:50;6.80;;;3.63;;
21780;SDS011;52576;53.614;9.894;2022-12-07T06:09:53;9.43;;;3.60;;
21780;SDS011;52576;53.614;9.894;2022-12-07T06:10:56;9.80;;;3.08;;
21780;SDS011;52576;53.614;9.894;2022-12-07T06:12:13;8.77;;;2.97;;
21780;SDS011;52576;53.614;9.894;2022-12-07T06:13:33;6.15;;;3.33;;
21780;SDS011;52576;53.614;9.894;2022-12-07T06:14:37;8.02;;;3.20;;
21780;SDS011;52576;53.614;9.894;2022-12-07T06:15:39;4.72;;;2.75;;
21780;SDS011;52576;53.614;9.894;2022-12-07T06:16:42;6.57;;;3.30;;
21780;SDS011;52576;53.614;9.894;2022-12-07T06:17:45;6.03;;;3.25;;
21780;SDS011;52576;53.614;9.894;2022-12-07T06:18:48;9.18;;;3.55;;
21780;SDS011;52576;53.614;9.894;2022-12-07T06:19:50;7.60;;;3.20;;
21780;SDS011;52576;53.614;9.894;2022-12-07T06:20:53;7.95;;;3.33;;
21780;SDS011;52576;53.614;9.894;2022-12-07T06:21:55;7.45;;;3.20;;
21780;SDS011;52576;53.614;9.894;2022-12-07T06:22:59;10.18;;;3.30;;
21780;SDS011;52576;53.614;9.894;2022-12-07T06:24:04;8.43;;;3.22;;
21780;SDS011;52576;53.614;9.894;2022-12-07T06:25:07;6.78;;;3.20;;
21780;SDS011;52576;53.614;9.894;2022-12-07T06:26:11;9.85;;;3.00;;
21780;SDS011;52576;53.614;9.894;2022-12-07T06:27:13;8.70;;;3.22;;
21780;SDS011;52576;53.614;9.894;2022-12-07T06:28:16;6.72;;;2.92;;
21780;SDS011;52576;53.614;9.894;2022-12-07T06:29:18;9.50;;;2.92;;
21780;SDS011;52576;53.614;9.894;2022-12-07T06:30:22;5.78;;;3.22;;
21780;SDS011;52576;53.614;9.894;2022-12-07T06:31:24;6.88;;;3.38;;
21780;SDS011;52576;53.614;9.894;2022-12-07T06:32:27;6.47;;;3.20;;
21780;SDS011;52576;53.614;9.894;2022-12-07T06:33:30;11.10;;;3.22;;
21780;SDS011;52576;53.614;9.894;2022-12-07T06:34:32;8.38;;;3.25;;
21780;SDS011;52576;53.614;9.894;2022-12-07T06:35:36;5.53;;;2.65;;
21780;SDS011;52576;53.614;9.894;2022-12-07T06:36:38;4.13;;;2.58;;